Time,TemperatureF,DewpointF,PressureIn,WindDirection,WindDirectionDegrees,WindSpeedMPH,WindSpeedGustMPH,Humidity,HourlyPrecipIn,Conditions,Clouds,dailyrainin,SoftwareType,DateUTC
2013-03-17 00:00:00,47.4,44.9,29.89,South,178,0.0,1.0,91,0.00,OVC,,0.00,WeatherDisplay:10.37,2013-03-17 04:00:00,
2013-03-17 01:00:00,49.2,46.1,29.90,South,178,0.0,0.0,89,0.00,OVC,,0.00,WeatherDisplay:10.37,2013-03-17 05:00:00,
2013-03-17 02:00:00,50.1,46.7,29.89,South,178,0.0,0.0,88,0.00,OVC,,0.00,WeatherDisplay:10.37,2013-03-17 06:00:00,
2013-03-17 03:00:00,49.1,46.6,29.89,South,178,0.0,0.0,91,0.00,OVC,,0.00,WeatherDisplay:10.37,2013-03-17 07:00:00,
2013-03-17 04:00:00,46.4,44.5,29.88,South,178,0.0,0.0,93,0.00,BKN,,0.00,WeatherDisplay:10.37,2013-03-17 08:00:00,
2013-03-17 05:00:00,44.5,43.2,29.88,South,178,0.0,1.0,95,0.00,CLR,,0.00,WeatherDisplay:10.37,2013-03-17 09:00:00,
2013-03-17 06:00:00,42.5,41.5,29.89,South,178,0.0,2.0,96,0.00,CLR,,0.00,WeatherDisplay:10.37,2013-03-17 10:00:00,
2013-03-17 07:00:00,41.6,40.5,29.91,South,178,0.0,0.0,96,0.00,CLR,,0.00,WeatherDisplay:10.37,2013-03-17 11:00:00,
2013-03-17 08:00:00,40.9,40.1,29.92,South,178,0.0,1.0,97,0.00,CLR,,0.00,WeatherDisplay:10.37,2013-03-17 12:00:00,
2013-03-17 09:00:00,42.2,41.6,29.93,South,178,0.0,0.0,98,0.00,CLR,,0.00,WeatherDisplay:10.37,2013-03-17 13:00:00,
2013-03-17 10:00:00,54.0,48.0,29.93,North,10,0.0,1.0,80,0.00,BKN,,0.00,WeatherDisplay:10.37,2013-03-17 14:00:00,
2013-03-17 11:00:00,59.7,49.1,29.92,NNE,29,2.0,5.0,68,0.00,SCT,,0.00,WeatherDisplay:10.37,2013-03-17 15:00:00,
2013-03-17 12:00:00,64.8,51.5,29.91,SSW,207,1.0,10.0,62,0.00,CLR,,0.00,WeatherDisplay:10.37,2013-03-17 16:00:00,
2013-03-17 13:00:00,66.8,50.1,29.88,South,169,8.0,15.0,55,0.00,SCT,,0.00,WeatherDisplay:10.37,2013-03-17 17:00:00,
2013-03-17 14:00:00,69.2,50.8,29.85,SSE,158,6.0,14.0,52,0.00,BKN,,0.00,WeatherDisplay:10.37,2013-03-17 18:00:00,
2013-03-17 15:00:00,69.1,48.6,29.82,SSE,168,5.0,13.0,48,0.00,SCT,,0.00,WeatherDisplay:10.37,2013-03-17 19:00:00,
2013-03-17 16:00:00,67.9,45.8,29.82,SSE,167,7.0,15.0,45,0.00,SCT,,0.00,WeatherDisplay:10.37,2013-03-17 20:00:00,
2013-03-17 17:00:00,66.7,47.5,29.83,SSE,154,6.0,15.0,50,0.00,CLR,,0.00,WeatherDisplay:10.37,2013-03-17 21:00:00,
2013-03-17 18:00:00,65.6,48.0,29.83,SSE,155,5.0,13.0,53,0.00,SCT,,0.00,WeatherDisplay:10.37,2013-03-17 22:00:00,
2013-03-17 19:00:00,63.8,46.3,29.84,SE,145,2.0,10.0,53,0.00,CLR,,0.00,WeatherDisplay:10.37,2013-03-17 23:00:00,
2013-03-17 20:00:00,57.2,47.5,29.85,South,173,0.0,5.0,70,0.00,CLR,,0.00,WeatherDisplay:10.37,2013-03-18 00:00:00,
2013-03-17 21:00:00,52.5,47.2,29.88,South,173,0.0,1.0,82,0.00,CLR,,0.00,WeatherDisplay:10.37,2013-03-18 01:00:00,
2013-03-17 22:00:00,50.3,46.9,29.88,South,173,0.0,1.0,88,0.00,CLR,,0.00,WeatherDisplay:10.37,2013-03-18 02:00:00,
2013-03-17 23:00:00,48.3,45.5,29.89,South,173,0.0,2.0,90,0.00,SCT,,0.00,WeatherDisplay:10.37,2013-03-18 03:00:00,